Tiffin, IA (52340)

6:29 AM CDT on March 29, 2015 (GMT -0500)
Green Castle | | Change Station
CLOSE
Current Station
Personal Weather Station
Location: Oxford, IA
Elevation: 771 ft
Nearby Weather Stations
Active Advisory: Special Statement

Elev 771 ft 41.75 °N, 91.72 °W | Updated 4 minutes ago

Partly Cloudy
Partly Cloudy
32.0 °F
Feels Like 22 °F
N
14.0
Wind Variable Wind from South

Today
High -- | Low -- °F
--% Chance of Precip.
Yesterday
High -- | Low -- °F
Precip. -- in
6:55 AM 7:28 PM
Waxing Gibbous, 70% visible
Pressure 30.04 in
Visibility 10.0 miles
Clouds Few 12000 ft
Windchill 22 °F
Dew Point 21 °F
Humidity 64%
Rainfall 0.00 in
Snow Depth Not available.
UV 0 out of 12
Pollen 6.30 out of 12
Air Quality Not available.
Flu Activity Not available.
METAR KIOW 291052Z AUTO 15013KT 10SM FEW120 01/M05 A3002 RMK AO2 SLP171 T00061050

More Conditions Fewer Conditions

Pressure 30.04 in
Visibility 10.0 miles
Clouds Few 12000 ft
Windchill 22 °F
Dew Point 21 °F
Humidity 64%
Rainfall 0.00 in
Snow Depth Not available.
UV 0 out of 12
Pollen 6.30 out of 12
Air Quality Not available.
Flu Activity Not available.
METAR KIOW 291052Z AUTO 15013KT 10SM FEW120 01/M05 A3002 RMK AO2 SLP171 T00061050

More Conditions Fewer Conditions

10-Day Weather Forecast

Almanac

Astronomy

Mar. 29, 2015 Rise Set
Actual Time
Civil Twilight
Nautical Twilight
Astronomical Twilight
Moon
Length of Visible Light
Length of Day
Tomorrow will be .
, % of the Moon is Illuminated

Today's Extremes

State Highs State Lows

Community

WunderPhotos

Upload Photos

1,809,214 photos uploaded!

WunderBlogs® & News

Nearby

Air Quality

  Air Quality AQ Index Pollutant
Not available.

Snow Depth

Station Depth Elevation

Earthquake Activity

City Distance Mag. Time & Date
Minimum magnitude displayed is 2.5.

Coastal Water Temperatures

Place Temperature

Stations

Nearby Weather Stations

Station Location Temp. Windchill Dew Point Humidity Wind Precip. Elev Updated Type
                   
Special Statement
Statement as of 5:16 AM CDT on March 29, 2015

... Brief wintry mix this morning...

An area of rain is moving across Iowa and will move into illionis
between 6 and 7 am. With temperatures hovering near or at freezing
across the area... freezing rain is possible. Little to no ice
accumulation are expected at this time. The freezing rain will
transition to all rain shortly after it begins as temperatures
continue to rise. Those who are travelling this morning should be
alert for possible slippery conditions. Temperatures will warm
above freezing quickly this morning... so any accumulation of ice
should melt this morning.